• pl
  • eng

Awiacja
TAF FC 01:00 01.01.1970

TAF EPLB 251730Z 2518/2603 09010KT CAVOK
PROB40 TEMPO 2519/2524 SHRA BKN040CB=

TAF AMD EPRA 251800Z 2518/2603 CNL=

TAF EPSY 251730Z 2518/2603 VRB03KT CAVOK=
Awiacja.imgw.pl jest pogodowym serwisem informacyjnym
Instytutu Meteorologii i Gospodarki Wodnej Państwowego Instytutu Badawczego.
Copyright IMGW PIB 2009-2011© Wszelkie prawa zastrzeżone.